Port Angeles, Washington
Current Conditions -  °F | °C
As of 10:04 AM on Saturday 25 Oct 2014 (Local Time) from KCLM Reporting Station
Overcast Overcast  
Wind Chill: 11°   Ceiling: 1000
Heat Index: 11°   Visibility: 10mi
Dew Point:   Wind: 6mph
Humidity: 86%   Direction: NA
Pressure: 29.45"   Gusts: NA
Location:  48.12°N, 123.43°W
Report Text: KCLM 251704Z AUTO VRB05KT 10SM OVC010 11/08 A2945 RMK AO2 CIG 008V012 T01060083 TSNO $
Loading
Personal Weather Stations






























Interactive Weather Map
Tropical Storm Tracking
New forecast layout! Learn more

10-Day Weather Forecast

Advertisements
Track Severe Weather on mobile